CheckWX is a tool to help pilots better visualize weather data.  It is not intended as a substitute for an official pre-flight weather briefing.

10:12:34 UTC

KFXE METAR
Fort Lauderdale Executive Airport
Fort Lauderdale, Florida, USA
Current

20 mins ago

KFXE 220953Z 07015G22KT 10SM BKN027 OVC035 27/21 A2999 RMK AO2 SLP159 T02670211
Observed
Sep-22 @ 09:53 UTC
Wind
  • 070° at 15 KTS
  • Gusting to 22 KTS
Visibility
10 SM
Flight Rules
MVFR
Cloud Levels
  • Broken at 2,700' AGL
  • Overcast at 3,500' AGL
Temperature
27°C / 81°F
Dewpoint
21°C / 70°F
Heat Index
29°C / 85°F
Humidity
70%
Altimeter
29.99" Hg
Pressure
1015.62 hPa
Previous

24 mins ago

KFXE 220949Z 07014KT 10SM BKN027 OVC035 27/21 A2999 RMK AO2
Observed
Sep-22 @ 09:49 UTC
Wind
  • 070° at 14 KTS
Visibility
10 SM
Flight Rules
MVFR
Cloud Levels
  • Broken at 2,700' AGL
  • Overcast at 3,500' AGL
Temperature
27°C / 81°F
Dewpoint
21°C / 70°F
Heat Index
29°C / 85°F
Humidity
70%
Altimeter
29.99" Hg
Pressure
1015.62 hPa
Previous

1 hour ago

KFXE 220853Z 07013G22KT 10SM FEW032 SCT039 27/21 A2999 RMK AO2 SLP159 T02670206 56008
Observed
Sep-22 @ 08:53 UTC
Wind
  • 070° at 13 KTS
  • Gusting to 22 KTS
Visibility
10 SM
Flight Rules
VFR
Cloud Levels
  • Few at 3,200' AGL
  • Scattered at 3,900' AGL
Temperature
27°C / 81°F
Dewpoint
21°C / 70°F
Heat Index
29°C / 85°F
Humidity
70%
Altimeter
29.99" Hg
Pressure
1015.62 hPa